Time;durP1;ratioP1;P1;durP2;ratioP2;P2;SDS_P1;SDS_P2;PMS_P1;PMS_P2;Temp;Humidity;BMP_temperature;BMP_pressure;BME280_temperature;BME280_humidity;BME280_pressure;Samples;Min_cycle;Max_cycle;Signal;HPM_P1;HPM_P2
2022/10/22 00:01:39;;;;;;;22.70;12.73;;;13.60;83.30;;;;;;4216453;28;20028;-86
2022/10/22 00:03:40;;;;;;;25.65;13.43;;;13.70;83.40;;;;;;4218852;28;20266;-85
2022/10/22 00:05:41;;;;;;;26.58;13.60;;;13.60;83.30;;;;;;4179138;28;20072;-86
2022/10/22 00:07:42;;;;;;;24.98;14.32;;;13.60;83.20;;;;;;4228257;27;20072;-86
2022/10/22 00:09:43;;;;;;;23.42;14.23;;;13.60;83.20;;;;;;4209221;28;20103;-86
2022/10/22 00:11:44;;;;;;;25.40;13.55;;;13.70;83.30;;;;;;4202033;28;20028;-86
2022/10/22 00:13:45;;;;;;;29.67;12.20;;;13.60;83.20;;;;;;4224231;27;20031;-86
2022/10/22 00:15:46;;;;;;;32.15;13.88;;;13.60;83.10;;;;;;4206361;28;20042;-86
2022/10/22 00:17:48;;;;;;;27.13;13.20;;;13.60;83.20;;;;;;4223902;27;20106;-86
2022/10/22 00:19:50;;;;;;;20.55;13.40;;;13.60;83.10;;;;;;4223092;28;20579;-86
2022/10/22 00:21:51;;;;;;;25.38;13.48;;;13.70;83.20;;;;;;4219338;28;20241;-85
2022/10/22 00:23:51;;;;;;;21.25;12.32;;;13.70;83.20;;;;;;4214646;28;20061;-86
2022/10/22 00:25:53;;;;;;;22.95;13.70;;;13.60;83.20;;;;;;4210640;28;20434;-86
2022/10/22 00:27:54;;;;;;;31.30;13.38;;;13.60;83.10;;;;;;4209357;28;20031;-86
2022/10/22 00:30:14;;;;;;;26.15;14.10;;;13.60;83.10;;;;;;4231388;27;20394;-86
2022/10/22 00:32:15;;;;;;;26.45;12.93;;;13.60;83.10;;;;;;4227689;27;20597;-86
2022/10/22 00:34:36;;;;;;;20.15;12.70;;;13.60;83.10;;;;;;4225128;27;20525;-86
2022/10/22 00:36:56;;;;;;;21.60;13.95;;;13.60;83.10;;;;;;4214881;28;20035;-86
2022/10/22 00:39:02;;;;;;;29.08;15.25;;;13.60;83.10;;;;;;4190917;28;20033;-87
2022/10/22 00:41:22;;;;;;;27.13;14.90;;;13.80;83.30;;;;;;4227074;27;20039;-85
2022/10/22 00:44:02;;;;;;;29.35;14.35;;;13.60;83.10;;;;;;4211769;28;20040;-86
2022/10/22 00:46:23;;;;;;;26.50;14.60;;;13.70;83.40;;;;;;4204100;28;20021;-86
2022/10/22 00:48:43;;;;;;;26.08;15.38;;;13.80;83.30;;;;;;4221875;27;20392;-86
2022/10/22 00:51:07;;;;;;;27.55;15.48;;;13.70;83.30;;;;;;4224318;28;20093;-86
2022/10/22 00:53:42;;;;;;;26.67;14.93;;;13.60;83.20;;;;;;4190553;28;20056;-86
2022/10/22 00:56:04;;;;;;;28.75;14.55;;;13.70;83.30;;;;;;4206394;28;20108;-86
2022/10/22 00:58:28;;;;;;;32.92;15.75;;;13.70;83.20;;;;;;4209375;28;20089;-86
2022/10/22 01:00:48;;;;;;;24.13;14.57;;;13.70;83.20;;;;;;4213888;28;20063;-86
2022/10/22 01:03:10;;;;;;;26.92;15.50;;;13.70;83.30;;;;;;4221237;28;20032;-86
2022/10/22 01:05:37;;;;;;;42.30;15.38;;;13.70;83.20;;;;;;4231435;27;20249;-86
2022/10/22 01:07:58;;;;;;;36.10;15.38;;;13.70;83.40;;;;;;4224208;28;20032;-86
2022/10/22 01:10:31;;;;;;;28.80;15.10;;;13.70;83.40;;;;;;4219012;28;20066;-85
2022/10/22 01:13:12;;;;;;;25.52;13.50;;;13.70;83.40;;;;;;4224832;28;20027;-86
2022/10/22 01:16:00;;;;;;;29.42;15.90;;;13.70;83.50;;;;;;4213179;28;20689;-86
2022/10/22 01:19:04;;;;;;;23.88;14.93;;;13.70;83.40;;;;;;4225943;28;20027;-86
2022/10/22 01:21:49;;;;;;;31.27;14.65;;;13.70;83.30;;;;;;4161910;28;20108;-86
2022/10/22 01:24:52;;;;;;;29.42;13.80;;;13.70;83.40;;;;;;4224314;28;20053;-86
2022/10/22 01:27:39;;;;;;;32.00;15.18;;;13.70;83.40;;;;;;4230106;28;20082;-86
2022/10/22 01:30:05;;;;;;;35.40;15.48;;;13.70;83.40;;;;;;4201844;28;20021;-86
2022/10/22 01:32:29;;;;;;;29.13;15.27;;;13.70;83.20;;;;;;4226746;27;20172;-86
2022/10/22 01:34:59;;;;;;;26.17;14.57;;;13.70;83.20;;;;;;4223340;28;20038;-86
2022/10/22 01:37:24;;;;;;;29.05;15.23;;;13.70;83.30;;;;;;4232909;28;20039;-85
2022/10/22 01:39:46;;;;;;;29.00;15.15;;;13.70;83.30;;;;;;4216794;28;20114;-86
2022/10/22 01:42:07;;;;;;;25.60;15.27;;;13.70;83.30;;;;;;4238039;27;20036;-86
2022/10/22 01:44:33;;;;;;;31.98;15.30;;;13.70;83.30;;;;;;4215984;28;20419;-85
2022/10/22 01:47:10;;;;;;;28.33;15.07;;;13.70;83.40;;;;;;4216555;27;20031;-86
2022/10/22 01:49:58;;;;;;;33.60;15.27;;;13.70;83.40;;;;;;4230449;27;20023;-86
2022/10/22 01:52:37;;;;;;;24.17;13.70;;;13.70;83.40;;;;;;4225757;27;20024;-86
2022/10/22 01:55:15;;;;;;;27.05;13.85;;;13.70;83.40;;;;;;4210735;28;20048;-85
2022/10/22 01:57:45;;;;;;;26.67;14.63;;;13.70;83.30;;;;;;4223251;27;20029;-86
2022/10/22 02:00:09;;;;;;;28.23;15.43;;;13.80;83.40;;;;;;4221330;27;20788;-86
2022/10/22 02:02:41;;;;;;;;;;;13.70;83.40;;;;;;4220389;28;20039;-86
2022/10/22 02:05:14;;;;;;;32.58;14.35;;;13.80;83.90;;;;;;4235979;27;19961;-86
2022/10/22 02:08:01;;;;;;;29.83;14.38;;;13.80;83.20;;;;;;4228734;27;20073;-86
2022/10/22 02:10:23;;;;;;;33.47;14.77;;;13.80;83.30;;;;;;4230472;27;20450;-86
2022/10/22 02:12:48;;;;;;;29.27;15.50;;;13.90;83.30;;;;;;4208592;28;20029;-86
2022/10/22 02:15:10;;;;;;;34.13;16.70;;;13.80;83.30;;;;;;4229233;27;20439;-86
2022/10/22 02:17:33;;;;;;;28.33;16.50;;;13.70;83.30;;;;;;4227836;27;20023;-86
2022/10/22 02:20:17;;;;;;;34.67;16.88;;;13.70;83.30;;;;;;4228368;27;20279;-86
2022/10/22 02:22:38;;;;;;;30.50;15.52;;;13.80;83.50;;;;;;4207688;28;20039;-86
2022/10/22 02:24:59;;;;;;;27.65;16.25;;;13.80;83.40;;;;;;4207818;28;20051;-86
2022/10/22 02:27:31;;;;;;;33.55;15.73;;;13.80;83.40;;;;;;4208612;28;20020;-86
2022/10/22 02:30:14;;;;;;;35.92;15.45;;;13.70;83.30;;;;;;4228262;27;20028;-86
2022/10/22 02:32:43;;;;;;;29.02;15.68;;;13.80;83.50;;;;;;4215639;27;20034;-86
2022/10/22 02:35:06;;;;;;;32.42;16.95;;;13.70;83.40;;;;;;4225418;27;20023;-86
2022/10/22 02:37:28;;;;;;;28.98;16.65;;;13.70;83.40;;;;;;4215169;27;20032;-86
2022/10/22 02:39:49;;;;;;;30.20;16.65;;;13.70;83.40;;;;;;4224381;27;20115;-86
2022/10/22 02:42:11;;;;;;;34.58;17.10;;;13.70;83.50;;;;;;4218398;27;20036;-87
2022/10/22 02:44:32;;;;;;;40.58;16.25;;;13.80;83.60;;;;;;4226845;27;20032;-86
2022/10/22 02:46:33;;;;;;;29.60;17.35;;;13.80;83.70;;;;;;4229888;27;20439;-86
2022/10/22 02:48:33;;;;;;;31.85;16.52;;;13.70;83.60;;;;;;4210536;28;20038;-86
2022/10/22 02:50:34;;;;;;;30.75;17.75;;;13.70;83.70;;;;;;4203570;28;20587;-86
2022/10/22 02:52:35;;;;;;;36.00;17.35;;;13.70;83.70;;;;;;4224954;27;20020;-86
2022/10/22 02:54:36;;;;;;;38.42;17.55;;;13.70;83.80;;;;;;4217858;28;20023;-86
2022/10/22 02:56:36;;;;;;;30.02;16.00;;;13.80;83.90;;;;;;4221672;28;20408;-86
2022/10/22 02:58:37;;;;;;;37.20;17.85;;;13.80;83.90;;;;;;4232396;27;20026;-86
2022/10/22 03:00:38;;;;;;;36.00;18.23;;;13.70;83.80;;;;;;4216654;28;20454;-86
2022/10/22 03:02:39;;;;;;;39.33;19.73;;;13.80;83.90;;;;;;4208100;28;20027;-86
2022/10/22 03:04:40;;;;;;;36.22;18.20;;;13.90;84.00;;;;;;4215148;28;20503;-85
2022/10/22 03:06:43;;;;;;;47.83;19.30;;;13.80;84.00;;;;;;4212647;28;20121;-85
2022/10/22 03:08:43;;;;;;;42.30;19.08;;;13.80;84.10;;;;;;4216313;28;20030;-86
2022/10/22 03:10:44;;;;;;;42.97;19.00;;;13.90;84.10;;;;;;4229677;27;20052;-86
2022/10/22 03:12:45;;;;;;;46.50;19.88;;;13.80;84.10;;;;;;4214063;28;20099;-86
2022/10/22 03:14:46;;;;;;;41.95;19.70;;;13.80;84.20;;;;;;4231086;27;20107;-86
2022/10/22 03:16:46;;;;;;;41.58;19.77;;;13.90;84.20;;;;;;4212941;28;20400;-86
2022/10/22 03:18:47;;;;;;;38.03;19.75;;;13.80;84.20;;;;;;4229460;27;20092;-86
2022/10/22 03:20:48;;;;;;;37.33;19.98;;;13.80;84.10;;;;;;4223235;28;20451;-86
2022/10/22 03:22:49;;;;;;;45.70;20.05;;;13.90;84.20;;;;;;4202780;28;20033;-85
2022/10/22 03:24:54;;;;;;;40.40;19.58;;;13.90;84.20;;;;;;4237524;27;20514;-86
2022/10/22 03:26:55;;;;;;;36.22;18.00;;;13.90;84.10;;;;;;4194996;28;20050;-86
2022/10/22 03:28:59;;;;;;;36.22;18.77;;;13.80;84.10;;;;;;4198283;28;20052;-86
2022/10/22 03:31:00;;;;;;;;;;;13.90;84.10;;;;;;4199838;28;20435;-86
2022/10/22 03:33:01;;;;;;;41.22;18.45;;;13.80;84.60;;;;;;4234690;27;19995;-86
2022/10/22 03:35:04;;;;;;;32.03;17.85;;;13.90;84.00;;;;;;4230153;27;20027;-86
2022/10/22 03:37:05;;;;;;;33.70;17.98;;;13.80;83.90;;;;;;4231541;27;20087;-86
2022/10/22 03:39:07;;;;;;;34.17;16.95;;;13.80;83.90;;;;;;4212250;28;20047;-86
2022/10/22 03:41:08;;;;;;;33.53;18.33;;;13.90;84.00;;;;;;4199762;28;20512;-86
2022/10/22 03:43:20;;;;;;;40.78;18.65;;;13.90;84.10;;;;;;4213991;28;20523;-86
2022/10/22 03:45:41;;;;;;;42.20;21.35;;;13.80;84.00;;;;;;4227964;27;20135;-84
2022/10/22 03:47:45;;;;;;;46.83;20.13;;;13.90;84.10;;;;;;4202612;28;20283;-84
2022/10/22 03:50:06;;;;;;;44.95;22.25;;;13.80;84.10;;;;;;4230308;27;20035;-84
2022/10/22 03:52:27;;;;;;;48.85;21.35;;;13.80;84.10;;;;;;4225546;27;20027;-84
2022/10/22 03:54:28;;;;;;;50.58;22.38;;;13.80;84.10;;;;;;4197025;28;20056;-84
2022/10/22 03:56:48;;;;;;;49.22;22.58;;;13.80;84.20;;;;;;4217723;27;20466;-84
2022/10/22 03:59:09;;;;;;;50.20;22.13;;;13.80;84.20;;;;;;4225166;27;20457;-84
2022/10/22 04:01:11;;;;;;;53.80;22.90;;;13.80;84.30;;;;;;4212062;28;20091;-84
2022/10/22 04:03:25;;;;;;;47.67;22.83;;;13.80;84.30;;;;;;4207700;28;20036;-84
2022/10/22 04:05:45;;;;;;;52.30;23.15;;;13.90;84.30;;;;;;4225953;27;20235;-86
2022/10/22 04:08:06;;;;;;;53.70;22.58;;;13.90;84.30;;;;;;4213095;27;20052;-84
2022/10/22 04:10:26;;;;;;;54.25;23.30;;;13.90;84.20;;;;;;4215438;27;20028;-84
2022/10/22 04:12:47;;;;;;;56.17;23.45;;;14.00;84.40;;;;;;4230680;27;20031;-85
2022/10/22 04:15:08;;;;;;;40.72;21.15;;;13.90;84.30;;;;;;4228698;27;20518;-84
2022/10/22 04:17:36;;;;;;;55.50;22.63;;;13.90;84.30;;;;;;4211250;27;20466;-84
2022/10/22 04:19:56;;;;;;;55.85;23.58;;;13.90;84.20;;;;;;4208996;28;20020;-85
2022/10/22 04:22:17;;;;;;;62.60;23.30;;;13.90;84.20;;;;;;4224601;27;20152;-84
2022/10/22 04:24:37;;;;;;;60.15;23.58;;;13.90;84.20;;;;;;4207450;28;20111;-84
2022/10/22 04:26:58;;;;;;;52.00;22.98;;;13.90;84.20;;;;;;4206634;28;20032;-84
2022/10/22 04:29:19;;;;;;;54.22;22.88;;;13.90;84.10;;;;;;4233537;27;20039;-84
2022/10/22 04:31:39;;;;;;;81.60;24.33;;;13.90;84.10;;;;;;4212535;28;20536;-84
2022/10/22 04:34:00;;;;;;;56.97;23.38;;;14.00;84.10;;;;;;4210637;28;20024;-84
2022/10/22 04:36:21;;;;;;;62.72;21.90;;;13.90;84.80;;;;;;4226896;27;20279;-84
2022/10/22 04:38:43;;;;;;;60.50;21.92;;;13.90;84.00;;;;;;4225270;27;20207;-85
2022/10/22 04:41:16;;;;;;;65.07;22.63;;;13.90;84.10;;;;;;4233336;27;20106;-84
2022/10/22 04:43:37;;;;;;;76.13;22.13;;;13.90;84.10;;;;;;4211715;27;20030;-84
2022/10/22 04:45:59;;;;;;;61.90;22.77;;;14.00;84.10;;;;;;4209922;28;20429;-84
2022/10/22 04:48:20;;;;;;;44.83;19.95;;;14.00;84.00;;;;;;4212574;28;20407;-84
2022/10/22 04:50:40;;;;;;;58.65;21.02;;;13.90;83.90;;;;;;4210148;27;20451;-85
2022/10/22 04:53:01;;;;;;;55.45;21.13;;;13.90;83.80;;;;;;4212821;28;20452;-84
2022/10/22 04:55:22;;;;;;;72.97;20.75;;;13.90;83.80;;;;;;4215413;28;20420;-84
2022/10/22 04:57:42;;;;;;;56.20;18.95;;;13.90;83.80;;;;;;4222354;28;20039;-85
2022/10/22 05:00:04;;;;;;;70.10;20.85;;;13.90;83.70;;;;;;4228911;28;20515;-85
2022/10/22 05:02:24;;;;;;;61.33;20.75;;;13.90;83.80;;;;;;4226544;28;20489;-84
2022/10/22 05:04:45;;;;;;;43.83;19.10;;;13.90;83.70;;;;;;4229707;28;20444;-84
2022/10/22 05:07:05;;;;;;;70.10;19.75;;;13.90;83.70;;;;;;4232655;28;20607;-84
2022/10/22 05:09:26;;;;;;;86.72;18.65;;;13.80;83.50;;;;;;4213862;28;20473;-84
2022/10/22 05:11:50;;;;;;;72.38;18.35;;;13.90;83.60;;;;;;4220414;28;20480;-84
2022/10/22 05:14:11;;;;;;;40.45;17.92;;;13.80;83.50;;;;;;4206668;27;20029;-84
2022/10/22 05:16:33;;;;;;;49.88;18.55;;;13.80;83.40;;;;;;4227813;27;20396;-85
2022/10/22 05:18:54;;;;;;;45.30;17.48;;;13.90;83.50;;;;;;4222088;27;20375;-84
2022/10/22 05:21:17;;;;;;;55.90;18.33;;;13.80;83.40;;;;;;4223255;27;20020;-85
2022/10/22 05:23:38;;;;;;;80.70;17.23;;;13.70;83.30;;;;;;4228183;27;20062;-84
2022/10/22 05:26:03;;;;;;;102.10;18.05;;;13.70;83.30;;;;;;4216637;27;20395;-84
2022/10/22 05:28:24;;;;;;;90.78;18.45;;;13.70;83.40;;;;;;4219010;28;20023;-84
2022/10/22 05:30:55;;;;;;;74.55;16.60;;;13.70;83.30;;;;;;4237345;27;20024;-85
2022/10/22 05:33:16;;;;;;;53.70;16.48;;;13.70;83.40;;;;;;4215228;27;20035;-84
2022/10/22 05:35:36;;;;;;;48.30;14.95;;;13.70;83.40;;;;;;4235709;27;20024;-84
2022/10/22 05:37:57;;;;;;;33.65;14.60;;;13.60;83.40;;;;;;4221294;27;20028;-84
2022/10/22 05:40:17;;;;;;;104.85;14.93;;;13.70;83.40;;;;;;4216320;27;20024;-84
2022/10/22 05:42:38;;;;;;;35.80;14.15;;;13.60;83.40;;;;;;4234084;27;20488;-85
2022/10/22 05:44:59;;;;;;;37.55;14.40;;;13.60;83.40;;;;;;4216411;28;20551;-84
2022/10/22 05:47:19;;;;;;;70.35;15.35;;;13.60;83.50;;;;;;4227301;28;20506;-85
2022/10/22 05:49:40;;;;;;;32.25;14.32;;;13.60;83.60;;;;;;4232678;27;20128;-85
2022/10/22 05:52:00;;;;;;;42.65;14.38;;;13.70;83.70;;;;;;4233003;27;20101;-84
2022/10/22 05:54:21;;;;;;;23.08;13.70;;;13.70;83.70;;;;;;4233921;27;20015;-84
2022/10/22 05:56:42;;;;;;;20.85;13.38;;;13.70;83.70;;;;;;4211893;28;20074;-85
2022/10/22 05:59:02;;;;;;;45.38;15.38;;;13.60;83.70;;;;;;4231500;27;20031;-85
2022/10/22 06:01:27;;;;;;;22.65;13.93;;;13.60;83.80;;;;;;4219136;27;20518;-84
2022/10/22 06:03:48;;;;;;;29.85;13.90;;;13.60;83.80;;;;;;4208518;28;20123;-85
2022/10/22 06:06:16;;;;;;;35.30;14.73;;;13.60;83.80;;;;;;4226441;27;20487;-85
2022/10/22 06:08:36;;;;;;;33.55;15.98;;;13.60;83.90;;;;;;4230755;27;20035;-85
2022/10/22 06:10:56;;;;;;;40.63;14.82;;;13.60;83.70;;;;;;4225838;27;20408;-85
2022/10/22 06:13:15;;;;;;;48.45;15.05;;;13.60;83.70;;;;;;4213123;28;20093;-84
2022/10/22 06:15:34;;;;;;;40.58;15.00;;;13.70;83.90;;;;;;4232119;27;20030;-85
2022/10/22 06:17:54;;;;;;;41.30;14.85;;;13.60;83.90;;;;;;4223899;27;20076;-85
2022/10/22 06:20:14;;;;;;;70.63;16.25;;;13.60;83.80;;;;;;4241137;27;20042;-85
2022/10/22 06:22:33;;;;;;;68.40;14.88;;;13.60;83.70;;;;;;4227473;27;20031;-85
2022/10/22 06:24:52;;;;;;;36.33;14.00;;;13.60;83.70;;;;;;4229476;27;20443;-85
2022/10/22 06:27:11;;;;;;;35.28;14.25;;;13.60;84.50;;;;;;4222679;27;20083;-85
2022/10/22 06:29:30;;;;;;;44.45;15.15;;;13.50;83.60;;;;;;4209840;28;20038;-85
2022/10/22 06:31:49;;;;;;;31.20;13.57;;;13.50;83.60;;;;;;4208880;27;20162;-85
2022/10/22 06:34:13;;;;;;;20.55;12.90;;;13.50;83.60;;;;;;4208741;27;20099;-85
2022/10/22 06:36:32;;;;;;;35.05;13.63;;;13.50;83.70;;;;;;4225406;27;20047;-85
2022/10/22 06:38:53;;;;;;;27.30;13.20;;;13.60;83.70;;;;;;4216314;28;20122;-85
2022/10/22 06:41:14;;;;;;;52.42;13.05;;;13.50;83.70;;;;;;4221340;28;20511;-85
2022/10/22 06:43:33;;;;;;;33.80;12.55;;;13.50;84.40;;;;;;4216918;28;20099;-85
2022/10/22 06:45:58;;;;;;;38.35;13.88;;;13.50;83.70;;;;;;4232549;27;20970;-85
2022/10/22 06:48:17;;;;;;;28.23;12.02;;;13.50;83.70;;;;;;4212946;28;20242;-85
2022/10/22 06:50:36;;;;;;;46.10;12.63;;;13.50;83.70;;;;;;4232096;27;20604;-86
2022/10/22 06:52:56;;;;;;;28.05;12.57;;;13.50;83.70;;;;;;4227878;27;20058;-85
2022/10/22 06:55:16;;;;;;;28.10;12.98;;;13.50;83.80;;;;;;4226239;27;20404;-86
2022/10/22 06:57:35;;;;;;;41.05;12.43;;;13.50;83.70;;;;;;4214789;27;20070;-85
2022/10/22 06:59:54;;;;;;;50.97;13.20;;;13.50;83.70;;;;;;4224023;27;20282;-84
2022/10/22 07:02:13;;;;;;;53.25;15.18;;;13.50;83.60;;;;;;4230790;27;20042;-84
2022/10/22 07:04:32;;;;;;;83.63;16.15;;;13.50;83.60;;;;;;4229048;27;20053;-84
2022/10/22 07:06:54;;;;;;;52.28;15.10;;;13.50;83.50;;;;;;4216426;28;20064;-85
2022/10/22 07:09:13;;;;;;;66.25;15.18;;;13.50;83.40;;;;;;4226944;27;20124;-85
2022/10/22 07:11:41;;;;;;;28.88;12.93;;;13.50;83.50;;;;;;4229550;27;20030;-84
2022/10/22 07:14:00;;;;;;;39.30;12.85;;;13.50;83.60;;;;;;4225615;27;20034;-85
2022/10/22 07:16:20;;;;;;;50.67;14.30;;;13.50;83.70;;;;;;4212914;28;20039;-85
2022/10/22 07:18:40;;;;;;;53.92;13.05;;;13.40;83.80;;;;;;4230205;27;20058;-85
2022/10/22 07:21:00;;;;;;;34.35;13.05;;;13.50;83.90;;;;;;4226172;27;20054;-85
2022/10/22 07:23:20;;;;;;;27.98;12.02;;;13.50;84.00;;;;;;4212128;27;20046;-85
2022/10/22 07:25:40;;;;;;;26.67;12.95;;;13.50;84.00;;;;;;4226988;27;20047;-86
2022/10/22 07:27:59;;;;;;;29.27;12.68;;;13.60;84.20;;;;;;4220110;27;20096;-85
2022/10/22 07:30:18;;;;;;;26.55;13.48;;;13.50;84.20;;;;;;4215284;27;20431;-85
2022/10/22 07:32:37;;;;;;;20.98;12.75;;;13.50;84.30;;;;;;4211158;28;20084;-85
2022/10/22 07:34:56;;;;;;;30.98;13.65;;;13.60;84.50;;;;;;4234731;27;20526;-85
2022/10/22 07:37:15;;;;;;;40.17;13.75;;;13.50;84.40;;;;;;4234077;27;20035;-84
2022/10/22 07:39:34;;;;;;;84.47;14.40;;;13.60;84.50;;;;;;4215983;28;20487;-84
2022/10/22 07:41:53;;;;;;;25.17;13.35;;;13.60;84.50;;;;;;4224338;27;20122;-85
2022/10/22 07:44:12;;;;;;;34.75;13.10;;;13.60;84.50;;;;;;4214370;28;20039;-86
2022/10/22 07:46:34;;;;;;;29.27;12.95;;;13.60;84.50;;;;;;4235208;27;20139;-85
2022/10/22 07:48:53;;;;;;;32.40;14.95;;;13.60;84.50;;;;;;4220249;27;20191;-85
2022/10/22 07:51:12;;;;;;;36.05;14.73;;;13.70;84.60;;;;;;4231107;27;20039;-85
2022/10/22 07:53:32;;;;;;;27.83;14.65;;;13.70;84.70;;;;;;4232557;27;20066;-85
2022/10/22 07:55:51;;;;;;;32.67;16.13;;;13.70;84.70;;;;;;4215063;28;20546;-85
2022/10/22 07:58:11;;;;;;;45.65;14.77;;;13.70;84.80;;;;;;4214051;28;20082;-85
2022/10/22 08:00:30;;;;;;;50.53;15.90;;;13.80;84.90;;;;;;4222898;28;20064;-85
2022/10/22 08:02:49;;;;;;;82.30;16.55;;;13.90;85.00;;;;;;4235128;27;20530;-85
2022/10/22 08:05:08;;;;;;;78.50;18.25;;;13.90;85.00;;;;;;4213749;28;20039;-85
2022/10/22 08:07:27;;;;;;;41.00;16.35;;;13.90;85.00;;;;;;4222882;27;20108;-85
2022/10/22 08:09:46;;;;;;;46.90;18.00;;;13.90;84.90;;;;;;4213362;27;20197;-85
2022/10/22 08:12:06;;;;;;;72.10;18.30;;;13.90;85.00;;;;;;4216182;28;20039;-85
2022/10/22 08:14:25;;;;;;;29.73;15.35;;;13.90;84.90;;;;;;4232537;27;20034;-85
2022/10/22 08:16:44;;;;;;;55.30;17.77;;;14.00;85.00;;;;;;4216157;27;20144;-86
2022/10/22 08:19:03;;;;;;;38.40;17.38;;;14.00;84.90;;;;;;4213017;28;20038;-85
2022/10/22 08:21:22;;;;;;;46.25;16.65;;;14.00;84.90;;;;;;4236418;27;20046;-85
2022/10/22 08:23:42;;;;;;;42.83;17.60;;;14.00;84.80;;;;;;4229803;27;20050;-85
2022/10/22 08:26:01;;;;;;;39.17;17.63;;;14.10;84.90;;;;;;4214163;28;20034;-85
2022/10/22 08:28:21;;;;;;;43.70;18.85;;;14.10;84.70;;;;;;4220064;27;20191;-84
2022/10/22 08:30:41;;;;;;;34.78;18.00;;;14.10;84.70;;;;;;4207011;28;20039;-85
2022/10/22 08:33:00;;;;;;;39.40;18.85;;;14.20;84.60;;;;;;4215609;27;20085;-85
2022/10/22 08:35:19;;;;;;;33.03;17.17;;;14.10;84.40;;;;;;4228577;27;20034;-86
2022/10/22 08:37:38;;;;;;;32.92;15.43;;;14.10;84.30;;;;;;4213543;28;20423;-85
2022/10/22 08:39:57;;;;;;;42.58;16.63;;;14.10;84.30;;;;;;4210779;28;20035;-85
2022/10/22 08:42:47;;;;;;;36.63;16.58;;;14.10;84.40;;;;;;4230332;28;20080;-85
2022/10/22 08:45:29;;;;;;;53.85;16.33;;;14.10;84.50;;;;;;4209399;28;20047;-85
2022/10/22 08:48:09;;;;;;;32.60;16.35;;;14.10;84.50;;;;;;4217758;28;20042;-85
2022/10/22 08:50:35;;;;;;;30.92;16.52;;;14.10;84.50;;;;;;4234469;28;20042;-84
2022/10/22 08:52:58;;;;;;;27.65;15.43;;;14.20;84.40;;;;;;4231659;27;20079;-85
2022/10/22 08:55:17;;;;;;;30.85;16.00;;;14.10;84.40;;;;;;4230756;28;20519;-85
2022/10/22 08:57:46;;;;;;;39.97;17.13;;;14.20;84.50;;;;;;4228099;28;20031;-85
2022/10/22 09:00:14;;;;;;;31.70;17.58;;;14.20;84.50;;;;;;4221344;28;20078;-85
2022/10/22 09:02:42;;;;;;;35.85;15.80;;;14.20;84.30;;;;;;4207878;28;20106;-85
2022/10/22 09:05:30;;;;;;;32.83;17.33;;;14.20;84.30;;;;;;4229709;28;20349;-85
2022/10/22 09:07:50;;;;;;;35.80;19.08;;;14.20;84.40;;;;;;4201676;28;20034;-85
2022/10/22 09:10:11;;;;;;;29.83;16.00;;;14.20;84.20;;;;;;4209628;28;20089;-85
2022/10/22 09:12:30;;;;;;;25.17;14.75;;;14.20;84.10;;;;;;4228813;28;20031;-85
2022/10/22 09:14:50;;;;;;;30.60;17.10;;;14.20;84.10;;;;;;4215771;28;20411;-85
2022/10/22 09:17:28;;;;;;;27.92;16.50;;;14.20;83.90;;;;;;4228674;28;20124;-86
2022/10/22 09:19:53;;;;;;;32.30;16.45;;;14.20;83.90;;;;;;4225257;27;20046;-86
2022/10/22 09:22:38;;;;;;;28.38;15.65;;;14.20;83.90;;;;;;4221714;28;20119;-86
2022/10/22 09:25:12;;;;;;;31.50;16.10;;;14.20;84.00;;;;;;4228036;28;20413;-84
2022/10/22 09:27:31;;;;;;;28.27;14.65;;;14.20;83.80;;;;;;4210198;28;20058;-85
2022/10/22 09:29:51;;;;;;;28.20;15.57;;;14.30;83.90;;;;;;4216999;28;20357;-85
2022/10/22 09:32:10;;;;;;;27.60;14.98;;;14.20;83.70;;;;;;4226658;28;20578;-84
2022/10/22 09:34:30;;;;;;;24.35;15.32;;;14.20;83.50;;;;;;4227127;28;20039;-88
2022/10/22 09:37:00;;;;;;;29.10;15.88;;;14.30;83.70;;;;;;4229946;28;20104;-85
2022/10/22 09:39:33;;;;;;;25.00;14.18;;;14.20;83.70;;;;;;4215587;28;20131;-85
2022/10/22 09:41:52;;;;;;;25.15;14.63;;;14.20;83.70;;;;;;4218483;28;20078;-85
2022/10/22 09:44:12;;;;;;;29.15;15.10;;;14.20;83.50;;;;;;4224693;28;20059;-85
2022/10/22 09:46:38;;;;;;;28.20;14.02;;;14.20;83.30;;;;;;4211727;28;20095;-86
2022/10/22 09:49:04;;;;;;;20.23;12.65;;;14.20;83.30;;;;;;4225404;28;20089;-85
2022/10/22 09:51:47;;;;;;;20.83;12.75;;;14.20;83.40;;;;;;4210425;28;20092;-86
2022/10/22 09:54:19;;;;;;;22.52;13.75;;;14.30;83.70;;;;;;4219085;28;20557;-85
2022/10/22 09:56:42;;;;;;;26.58;15.25;;;14.40;83.70;;;;;;4210817;28;20079;-86
2022/10/22 09:59:02;;;;;;;27.38;14.90;;;14.30;83.50;;;;;;4224945;28;20035;-86
2022/10/22 10:01:33;;;;;;;27.65;14.65;;;14.30;83.50;;;;;;4230180;27;20034;-85
2022/10/22 10:03:53;;;;;;;24.38;15.27;;;14.30;83.50;;;;;;4226057;27;20038;-85
2022/10/22 10:06:17;;;;;;;27.02;15.05;;;14.30;83.30;;;;;;4220425;28;20039;-86
2022/10/22 10:08:37;;;;;;;24.67;14.23;;;14.30;83.30;;;;;;4235584;27;20041;-85
2022/10/22 10:11:01;;;;;;;29.35;15.52;;;14.30;83.30;;;;;;4234015;27;20111;-86
2022/10/22 10:13:41;;;;;;;24.15;15.23;;;14.30;83.40;;;;;;4228012;27;20046;-86
2022/10/22 10:16:26;;;;;;;24.58;13.88;;;14.30;83.40;;;;;;4232185;27;20022;-86
2022/10/22 10:18:50;;;;;;;;;;;14.30;83.50;;;;;;4205214;28;20119;-85
2022/10/22 10:21:23;;;;;;;24.33;13.48;;;14.40;83.80;;;;;;4214972;28;20414;-86
2022/10/22 10:24:19;;;;;;;26.58;14.45;;;14.40;83.40;;;;;;4215940;27;20411;-86
2022/10/22 10:26:46;;;;;;;23.80;13.98;;;14.40;83.40;;;;;;4191327;27;20035;-86
2022/10/22 10:29:13;;;;;;;25.10;14.27;;;14.40;83.60;;;;;;4229539;27;20091;-86
2022/10/22 10:31:54;;;;;;;28.52;14.02;;;14.40;83.70;;;;;;4217982;27;20283;-86
2022/10/22 10:34:42;;;;;;;21.98;13.05;;;14.50;83.80;;;;;;4230032;27;20042;-86
2022/10/22 10:37:34;;;;;;;22.63;13.13;;;14.50;83.70;;;;;;4229592;27;20072;-86
2022/10/22 10:39:59;;;;;;;24.35;12.90;;;14.60;83.80;;;;;;4229617;27;20062;-86
2022/10/22 10:42:39;;;;;;;24.88;13.85;;;14.60;83.90;;;;;;4227776;27;20042;-86
2022/10/22 10:45:12;;;;;;;26.88;13.48;;;14.60;84.10;;;;;;4220926;28;20055;-86
2022/10/22 10:47:55;;;;;;;24.73;13.85;;;14.70;84.20;;;;;;4227473;27;20062;-86
2022/10/22 10:50:42;;;;;;;22.33;12.20;;;14.70;84.10;;;;;;4213893;27;20054;-85
2022/10/22 10:53:26;;;;;;;22.20;13.43;;;14.80;84.00;;;;;;4234693;27;20010;-85
2022/10/22 10:55:59;;;;;;;;;;;14.80;83.80;;;;;;4230675;27;20431;-86
2022/10/22 10:58:51;;;;;;;23.20;12.73;;;14.90;83.90;;;;;;4230881;27;20295;-86
2022/10/22 11:01:35;;;;;;;24.17;12.57;;;14.90;83.60;;;;;;4234379;27;20042;-85
2022/10/22 11:04:27;;;;;;;25.17;14.20;;;15.00;83.80;;;;;;4215531;28;20427;-86
2022/10/22 11:06:49;;;;;;;26.63;14.05;;;15.00;83.70;;;;;;4228191;27;20103;-86
2022/10/22 11:09:23;;;;;;;26.70;13.32;;;15.20;83.90;;;;;;4228925;27;20452;-86
2022/10/22 11:12:04;;;;;;;24.15;13.65;;;15.20;84.00;;;;;;4226160;28;20031;-85
2022/10/22 11:14:51;;;;;;;22.67;11.98;;;15.30;84.10;;;;;;4227599;27;20090;-85
2022/10/22 11:17:14;;;;;;;22.45;12.07;;;15.30;84.10;;;;;;4234254;27;20061;-85
2022/10/22 11:19:39;;;;;;;25.25;13.30;;;15.40;84.20;;;;;;4243824;27;20088;-86
2022/10/22 11:22:14;;;;;;;24.05;11.95;;;15.50;84.30;;;;;;4229787;27;20043;-85
2022/10/22 11:24:53;;;;;;;24.80;12.80;;;15.60;84.30;;;;;;4231021;27;20046;-86
2022/10/22 11:27:36;;;;;;;23.52;13.00;;;15.70;83.90;;;;;;4218870;28;20039;-86
2022/10/22 11:30:01;;;;;;;24.65;12.07;;;15.70;83.70;;;;;;4232856;27;20034;-86
2022/10/22 11:32:25;;;;;;;23.90;12.02;;;15.80;83.50;;;;;;4232302;27;20084;-86
2022/10/22 11:34:54;;;;;;;27.25;12.90;;;15.90;83.40;;;;;;4228122;27;20039;-85
2022/10/22 11:37:13;;;;;;;23.02;11.90;;;15.90;83.00;;;;;;4217453;28;20039;-86
2022/10/22 11:39:52;;;;;;;21.10;11.45;;;16.00;83.00;;;;;;4217106;27;20085;-85
2022/10/22 11:42:20;;;;;;;20.02;10.73;;;16.10;82.70;;;;;;4223626;28;20084;-86
2022/10/22 11:45:04;;;;;;;21.58;11.70;;;16.10;82.70;;;;;;4218070;27;20074;-87
2022/10/22 11:47:26;;;;;;;21.58;11.38;;;16.20;82.60;;;;;;4226324;27;20119;-86
2022/10/22 11:49:56;;;;;;;24.48;12.00;;;16.30;82.70;;;;;;4216408;27;20400;-86
2022/10/22 11:52:24;;;;;;;24.88;11.63;;;16.40;82.40;;;;;;4223542;27;20062;-86
2022/10/22 11:54:44;;;;;;;33.08;11.45;;;16.50;82.40;;;;;;4218566;28;20502;-86
2022/10/22 11:57:19;;;;;;;23.27;11.55;;;16.60;82.40;;;;;;4228336;27;20046;-85
2022/10/22 11:59:45;;;;;;;34.72;12.38;;;16.60;81.70;;;;;;4227582;27;20147;-87
2022/10/22 12:02:39;;;;;;;23.15;9.07;;;16.70;81.70;;;;;;4225821;27;20042;-86